sensor_id;sensor_type;location;lat;lon;timestamp;P1;durP1;ratioP1;P2;durP2;ratioP2
48199;SDS011;33990;44.602;10.976;2023-01-08T00:00:12;9.55;;;7.68;;
48199;SDS011;33990;44.602;10.976;2023-01-08T00:02:40;10.13;;;7.70;;
48199;SDS011;33990;44.602;10.976;2023-01-08T00:05:07;8.88;;;6.90;;
48199;SDS011;33990;44.602;10.976;2023-01-08T00:07:37;9.73;;;7.30;;
48199;SDS011;33990;44.602;10.976;2023-01-08T00:10:05;11.13;;;7.30;;
48199;SDS011;33990;44.602;10.976;2023-01-08T00:12:33;8.95;;;7.22;;
48199;SDS011;33990;44.602;10.976;2023-01-08T00:15:00;11.15;;;7.53;;
48199;SDS011;33990;44.602;10.976;2023-01-08T00:17:28;10.70;;;6.97;;
48199;SDS011;33990;44.602;10.976;2023-01-08T00:19:55;10.10;;;7.68;;
48199;SDS011;33990;44.602;10.976;2023-01-08T00:22:22;12.30;;;7.15;;
48199;SDS011;33990;44.602;10.976;2023-01-08T00:24:50;10.00;;;6.93;;
48199;SDS011;33990;44.602;10.976;2023-01-08T00:27:17;9.15;;;6.88;;
48199;SDS011;33990;44.602;10.976;2023-01-08T00:29:44;9.77;;;7.57;;
48199;SDS011;33990;44.602;10.976;2023-01-08T00:32:12;11.07;;;7.18;;
48199;SDS011;33990;44.602;10.976;2023-01-08T00:34:39;10.30;;;7.28;;
48199;SDS011;33990;44.602;10.976;2023-01-08T00:37:06;10.02;;;7.53;;
48199;SDS011;33990;44.602;10.976;2023-01-08T00:39:33;10.65;;;7.72;;
48199;SDS011;33990;44.602;10.976;2023-01-08T00:42:01;10.63;;;7.47;;
48199;SDS011;33990;44.602;10.976;2023-01-08T00:44:28;9.27;;;7.13;;
48199;SDS011;33990;44.602;10.976;2023-01-08T00:46:55;8.80;;;7.30;;
48199;SDS011;33990;44.602;10.976;2023-01-08T00:49:22;9.52;;;7.53;;
48199;SDS011;33990;44.602;10.976;2023-01-08T00:51:50;7.97;;;6.95;;
48199;SDS011;33990;44.602;10.976;2023-01-08T00:54:17;9.90;;;7.70;;
48199;SDS011;33990;44.602;10.976;2023-01-08T00:56:44;11.30;;;7.55;;
48199;SDS011;33990;44.602;10.976;2023-01-08T00:59:11;9.00;;;6.65;;
48199;SDS011;33990;44.602;10.976;2023-01-08T01:01:39;9.05;;;7.97;;
48199;SDS011;33990;44.602;10.976;2023-01-08T01:04:06;7.88;;;6.97;;
48199;SDS011;33990;44.602;10.976;2023-01-08T01:06:34;11.10;;;7.75;;
48199;SDS011;33990;44.602;10.976;2023-01-08T01:09:01;10.32;;;7.00;;
48199;SDS011;33990;44.602;10.976;2023-01-08T01:11:28;9.38;;;7.35;;
48199;SDS011;33990;44.602;10.976;2023-01-08T01:13:56;11.25;;;7.72;;
48199;SDS011;33990;44.602;10.976;2023-01-08T01:16:23;10.45;;;7.68;;
48199;SDS011;33990;44.602;10.976;2023-01-08T01:18:51;9.20;;;7.20;;
48199;SDS011;33990;44.602;10.976;2023-01-08T01:21:23;9.68;;;7.43;;
48199;SDS011;33990;44.602;10.976;2023-01-08T01:26:20;8.13;;;7.03;;
48199;SDS011;33990;44.602;10.976;2023-01-08T01:28:49;9.88;;;7.72;;
48199;SDS011;33990;44.602;10.976;2023-01-08T01:31:19;10.80;;;8.00;;
48199;SDS011;33990;44.602;10.976;2023-01-08T01:33:47;11.00;;;7.90;;
48199;SDS011;33990;44.602;10.976;2023-01-08T01:36:15;9.95;;;7.45;;
48199;SDS011;33990;44.602;10.976;2023-01-08T01:38:45;9.48;;;7.63;;
48199;SDS011;33990;44.602;10.976;2023-01-08T01:41:17;9.65;;;7.78;;
48199;SDS011;33990;44.602;10.976;2023-01-08T01:46:59;8.20;;;7.13;;
48199;SDS011;33990;44.602;10.976;2023-01-08T01:49:30;10.10;;;7.75;;
48199;SDS011;33990;44.602;10.976;2023-01-08T01:52:00;9.63;;;7.22;;
48199;SDS011;33990;44.602;10.976;2023-01-08T01:54:31;9.20;;;7.72;;
48199;SDS011;33990;44.602;10.976;2023-01-08T01:57:01;10.38;;;7.68;;
48199;SDS011;33990;44.602;10.976;2023-01-08T01:59:29;8.90;;;7.68;;
48199;SDS011;33990;44.602;10.976;2023-01-08T02:01:57;9.27;;;7.38;;
48199;SDS011;33990;44.602;10.976;2023-01-08T02:04:25;9.80;;;7.65;;
48199;SDS011;33990;44.602;10.976;2023-01-08T02:06:55;13.25;;;7.40;;
48199;SDS011;33990;44.602;10.976;2023-01-08T02:09:43;9.63;;;7.38;;
48199;SDS011;33990;44.602;10.976;2023-01-08T02:12:35;10.38;;;8.32;;
48199;SDS011;33990;44.602;10.976;2023-01-08T02:17:57;8.77;;;7.07;;
48199;SDS011;33990;44.602;10.976;2023-01-08T02:23:07;9.30;;;7.60;;
48199;SDS011;33990;44.602;10.976;2023-01-08T02:28:37;11.13;;;7.75;;
48199;SDS011;33990;44.602;10.976;2023-01-08T02:31:11;10.50;;;8.38;;
48199;SDS011;33990;44.602;10.976;2023-01-08T02:33:40;9.90;;;7.50;;
48199;SDS011;33990;44.602;10.976;2023-01-08T02:36:16;10.35;;;8.15;;
48199;SDS011;33990;44.602;10.976;2023-01-08T02:38:56;8.90;;;7.50;;
48199;SDS011;33990;44.602;10.976;2023-01-08T02:41:35;10.45;;;7.38;;
48199;SDS011;33990;44.602;10.976;2023-01-08T02:44:09;10.27;;;8.52;;
48199;SDS011;33990;44.602;10.976;2023-01-08T02:46:43;10.13;;;7.53;;
48199;SDS011;33990;44.602;10.976;2023-01-08T02:49:10;12.25;;;8.30;;
48199;SDS011;33990;44.602;10.976;2023-01-08T02:51:40;9.80;;;7.57;;
48199;SDS011;33990;44.602;10.976;2023-01-08T02:54:15;10.90;;;7.65;;
48199;SDS011;33990;44.602;10.976;2023-01-08T02:56:47;9.47;;;7.53;;
48199;SDS011;33990;44.602;10.976;2023-01-08T02:59:18;8.45;;;7.22;;
48199;SDS011;33990;44.602;10.976;2023-01-08T03:01:48;9.77;;;7.43;;
48199;SDS011;33990;44.602;10.976;2023-01-08T03:04:17;9.70;;;7.47;;
48199;SDS011;33990;44.602;10.976;2023-01-08T03:06:47;9.93;;;7.25;;
48199;SDS011;33990;44.602;10.976;2023-01-08T03:09:16;8.65;;;7.38;;
48199;SDS011;33990;44.602;10.976;2023-01-08T03:11:46;9.90;;;7.55;;
48199;SDS011;33990;44.602;10.976;2023-01-08T03:16:46;7.93;;;7.13;;
48199;SDS011;33990;44.602;10.976;2023-01-08T03:19:20;10.35;;;8.18;;
48199;SDS011;33990;44.602;10.976;2023-01-08T03:21:50;11.43;;;8.18;;
48199;SDS011;33990;44.602;10.976;2023-01-08T03:24:20;11.07;;;8.45;;
48199;SDS011;33990;44.602;10.976;2023-01-08T03:26:50;8.80;;;7.57;;
48199;SDS011;33990;44.602;10.976;2023-01-08T03:29:21;9.65;;;7.85;;
48199;SDS011;33990;44.602;10.976;2023-01-08T03:31:51;8.88;;;7.65;;
48199;SDS011;33990;44.602;10.976;2023-01-08T03:34:23;9.65;;;7.57;;
48199;SDS011;33990;44.602;10.976;2023-01-08T03:36:54;9.77;;;7.45;;
48199;SDS011;33990;44.602;10.976;2023-01-08T03:39:29;10.50;;;7.85;;
48199;SDS011;33990;44.602;10.976;2023-01-08T03:42:04;9.35;;;7.72;;
48199;SDS011;33990;44.602;10.976;2023-01-08T03:44:36;9.40;;;8.02;;
48199;SDS011;33990;44.602;10.976;2023-01-08T03:47:03;10.32;;;7.70;;
48199;SDS011;33990;44.602;10.976;2023-01-08T03:49:34;9.77;;;7.75;;
48199;SDS011;33990;44.602;10.976;2023-01-08T03:52:03;9.57;;;7.88;;
48199;SDS011;33990;44.602;10.976;2023-01-08T03:54:32;10.00;;;8.05;;
48199;SDS011;33990;44.602;10.976;2023-01-08T03:57:01;10.73;;;8.40;;
48199;SDS011;33990;44.602;10.976;2023-01-08T03:59:28;11.15;;;8.05;;
48199;SDS011;33990;44.602;10.976;2023-01-08T04:01:55;11.10;;;8.55;;
48199;SDS011;33990;44.602;10.976;2023-01-08T04:04:23;9.57;;;7.80;;
48199;SDS011;33990;44.602;10.976;2023-01-08T04:06:51;10.85;;;8.57;;
48199;SDS011;33990;44.602;10.976;2023-01-08T04:09:19;11.98;;;8.75;;
48199;SDS011;33990;44.602;10.976;2023-01-08T04:11:46;11.43;;;9.15;;
48199;SDS011;33990;44.602;10.976;2023-01-08T04:14:14;12.75;;;9.00;;
48199;SDS011;33990;44.602;10.976;2023-01-08T04:16:41;10.77;;;8.73;;
48199;SDS011;33990;44.602;10.976;2023-01-08T04:19:09;10.63;;;8.48;;
48199;SDS011;33990;44.602;10.976;2023-01-08T04:21:37;10.02;;;8.27;;
48199;SDS011;33990;44.602;10.976;2023-01-08T04:24:05;12.15;;;8.85;;
48199;SDS011;33990;44.602;10.976;2023-01-08T04:26:33;11.55;;;8.60;;
48199;SDS011;33990;44.602;10.976;2023-01-08T04:29:01;10.80;;;8.90;;
48199;SDS011;33990;44.602;10.976;2023-01-08T04:31:30;10.77;;;9.20;;
48199;SDS011;33990;44.602;10.976;2023-01-08T04:33:57;11.73;;;8.57;;
48199;SDS011;33990;44.602;10.976;2023-01-08T04:36:25;9.82;;;8.38;;
48199;SDS011;33990;44.602;10.976;2023-01-08T04:38:52;9.80;;;8.80;;
48199;SDS011;33990;44.602;10.976;2023-01-08T04:41:19;9.85;;;8.07;;
48199;SDS011;33990;44.602;10.976;2023-01-08T04:43:47;9.77;;;8.30;;
48199;SDS011;33990;44.602;10.976;2023-01-08T04:46:14;12.85;;;8.95;;
48199;SDS011;33990;44.602;10.976;2023-01-08T04:48:41;11.23;;;9.23;;
48199;SDS011;33990;44.602;10.976;2023-01-08T04:51:09;10.63;;;8.90;;
48199;SDS011;33990;44.602;10.976;2023-01-08T04:53:36;12.93;;;9.23;;
48199;SDS011;33990;44.602;10.976;2023-01-08T04:56:04;11.27;;;8.45;;
48199;SDS011;33990;44.602;10.976;2023-01-08T04:58:33;12.60;;;9.32;;
48199;SDS011;33990;44.602;10.976;2023-01-08T05:01:18;12.65;;;9.20;;
48199;SDS011;33990;44.602;10.976;2023-01-08T05:03:51;11.88;;;9.88;;
48199;SDS011;33990;44.602;10.976;2023-01-08T05:06:23;11.93;;;9.23;;
48199;SDS011;33990;44.602;10.976;2023-01-08T05:08:51;10.85;;;8.13;;
48199;SDS011;33990;44.602;10.976;2023-01-08T05:11:18;10.70;;;8.65;;
48199;SDS011;33990;44.602;10.976;2023-01-08T05:13:46;12.25;;;9.38;;
48199;SDS011;33990;44.602;10.976;2023-01-08T05:16:15;11.30;;;8.63;;
48199;SDS011;33990;44.602;10.976;2023-01-08T05:18:43;11.00;;;8.90;;
48199;SDS011;33990;44.602;10.976;2023-01-08T05:21:11;11.57;;;8.40;;
48199;SDS011;33990;44.602;10.976;2023-01-08T05:23:42;12.00;;;8.95;;
48199;SDS011;33990;44.602;10.976;2023-01-08T05:26:11;13.18;;;9.52;;
48199;SDS011;33990;44.602;10.976;2023-01-08T05:28:38;10.75;;;8.70;;
48199;SDS011;33990;44.602;10.976;2023-01-08T05:31:06;11.07;;;9.25;;
48199;SDS011;33990;44.602;10.976;2023-01-08T05:33:33;14.52;;;10.05;;
48199;SDS011;33990;44.602;10.976;2023-01-08T05:36:03;14.13;;;10.10;;
48199;SDS011;33990;44.602;10.976;2023-01-08T05:38:31;11.20;;;8.63;;
48199;SDS011;33990;44.602;10.976;2023-01-08T05:40:58;11.75;;;9.07;;
48199;SDS011;33990;44.602;10.976;2023-01-08T05:43:26;12.07;;;9.93;;
48199;SDS011;33990;44.602;10.976;2023-01-08T05:45:53;12.05;;;9.70;;
48199;SDS011;33990;44.602;10.976;2023-01-08T05:48:20;13.38;;;10.27;;
48199;SDS011;33990;44.602;10.976;2023-01-08T05:50:48;12.38;;;9.35;;
48199;SDS011;33990;44.602;10.976;2023-01-08T05:53:16;12.25;;;9.70;;
48199;SDS011;33990;44.602;10.976;2023-01-08T05:55:43;13.52;;;10.05;;
48199;SDS011;33990;44.602;10.976;2023-01-08T05:58:10;11.82;;;10.10;;
48199;SDS011;33990;44.602;10.976;2023-01-08T06:00:38;12.88;;;9.73;;
48199;SDS011;33990;44.602;10.976;2023-01-08T06:03:06;11.20;;;8.98;;
48199;SDS011;33990;44.602;10.976;2023-01-08T06:05:33;12.35;;;9.98;;
48199;SDS011;33990;44.602;10.976;2023-01-08T06:08:00;13.45;;;9.63;;
48199;SDS011;33990;44.602;10.976;2023-01-08T06:10:28;13.25;;;10.40;;
48199;SDS011;33990;44.602;10.976;2023-01-08T06:12:55;13.63;;;9.85;;
48199;SDS011;33990;44.602;10.976;2023-01-08T06:15:22;12.88;;;10.43;;
48199;SDS011;33990;44.602;10.976;2023-01-08T06:17:50;13.18;;;10.32;;
48199;SDS011;33990;44.602;10.976;2023-01-08T06:20:17;10.57;;;9.07;;
48199;SDS011;33990;44.602;10.976;2023-01-08T06:22:44;14.90;;;11.32;;
48199;SDS011;33990;44.602;10.976;2023-01-08T06:25:11;12.30;;;9.88;;
48199;SDS011;33990;44.602;10.976;2023-01-08T06:27:39;12.20;;;10.38;;
48199;SDS011;33990;44.602;10.976;2023-01-08T06:30:06;13.32;;;10.07;;
48199;SDS011;33990;44.602;10.976;2023-01-08T06:32:34;12.93;;;9.95;;
48199;SDS011;33990;44.602;10.976;2023-01-08T06:35:02;11.98;;;9.60;;
48199;SDS011;33990;44.602;10.976;2023-01-08T06:37:30;13.77;;;10.57;;
48199;SDS011;33990;44.602;10.976;2023-01-08T06:39:57;14.15;;;10.57;;
48199;SDS011;33990;44.602;10.976;2023-01-08T06:42:24;15.30;;;10.05;;
48199;SDS011;33990;44.602;10.976;2023-01-08T06:44:52;12.38;;;10.27;;
48199;SDS011;33990;44.602;10.976;2023-01-08T06:47:19;11.77;;;9.77;;
48199;SDS011;33990;44.602;10.976;2023-01-08T06:49:46;13.55;;;9.90;;
48199;SDS011;33990;44.602;10.976;2023-01-08T06:52:14;13.15;;;9.73;;
48199;SDS011;33990;44.602;10.976;2023-01-08T06:54:41;12.88;;;9.75;;
48199;SDS011;33990;44.602;10.976;2023-01-08T06:57:08;11.98;;;9.52;;
48199;SDS011;33990;44.602;10.976;2023-01-08T06:59:35;12.23;;;10.02;;
48199;SDS011;33990;44.602;10.976;2023-01-08T07:02:03;13.05;;;9.93;;
48199;SDS011;33990;44.602;10.976;2023-01-08T07:04:30;12.35;;;8.63;;
48199;SDS011;33990;44.602;10.976;2023-01-08T07:06:57;11.45;;;9.52;;
48199;SDS011;33990;44.602;10.976;2023-01-08T07:09:25;12.82;;;10.13;;
48199;SDS011;33990;44.602;10.976;2023-01-08T07:11:52;11.48;;;9.93;;
48199;SDS011;33990;44.602;10.976;2023-01-08T07:14:19;11.95;;;9.52;;
48199;SDS011;33990;44.602;10.976;2023-01-08T07:16:47;13.35;;;10.45;;
48199;SDS011;33990;44.602;10.976;2023-01-08T07:19:14;13.27;;;10.27;;
48199;SDS011;33990;44.602;10.976;2023-01-08T07:21:41;11.80;;;9.25;;
48199;SDS011;33990;44.602;10.976;2023-01-08T07:24:08;12.20;;;10.40;;
48199;SDS011;33990;44.602;10.976;2023-01-08T07:26:36;14.20;;;10.02;;
48199;SDS011;33990;44.602;10.976;2023-01-08T07:29:05;14.45;;;10.73;;
48199;SDS011;33990;44.602;10.976;2023-01-08T07:31:32;11.68;;;9.70;;
48199;SDS011;33990;44.602;10.976;2023-01-08T07:34:00;13.85;;;9.60;;
48199;SDS011;33990;44.602;10.976;2023-01-08T07:36:27;12.60;;;10.05;;
48199;SDS011;33990;44.602;10.976;2023-01-08T07:38:54;13.23;;;10.35;;
48199;SDS011;33990;44.602;10.976;2023-01-08T07:41:22;12.02;;;9.57;;
48199;SDS011;33990;44.602;10.976;2023-01-08T07:43:49;13.90;;;10.63;;
48199;SDS011;33990;44.602;10.976;2023-01-08T07:46:16;14.65;;;10.00;;
48199;SDS011;33990;44.602;10.976;2023-01-08T07:48:44;12.45;;;10.23;;
48199;SDS011;33990;44.602;10.976;2023-01-08T07:51:11;12.75;;;10.40;;
48199;SDS011;33990;44.602;10.976;2023-01-08T07:53:38;11.88;;;10.15;;
48199;SDS011;33990;44.602;10.976;2023-01-08T07:56:06;12.00;;;9.55;;
48199;SDS011;33990;44.602;10.976;2023-01-08T07:58:35;12.23;;;9.52;;
48199;SDS011;33990;44.602;10.976;2023-01-08T08:01:03;13.68;;;11.32;;
48199;SDS011;33990;44.602;10.976;2023-01-08T08:03:34;13.05;;;10.45;;
48199;SDS011;33990;44.602;10.976;2023-01-08T08:06:01;14.82;;;10.65;;
48199;SDS011;33990;44.602;10.976;2023-01-08T08:08:28;12.02;;;9.80;;
48199;SDS011;33990;44.602;10.976;2023-01-08T08:10:56;13.90;;;9.85;;
48199;SDS011;33990;44.602;10.976;2023-01-08T08:13:23;11.32;;;9.45;;
48199;SDS011;33990;44.602;10.976;2023-01-08T08:15:50;13.15;;;10.05;;
48199;SDS011;33990;44.602;10.976;2023-01-08T08:18:18;13.95;;;11.32;;
48199;SDS011;33990;44.602;10.976;2023-01-08T08:20:46;13.85;;;10.57;;
48199;SDS011;33990;44.602;10.976;2023-01-08T08:23:15;14.40;;;10.55;;
48199;SDS011;33990;44.602;10.976;2023-01-08T08:25:42;13.18;;;10.40;;
48199;SDS011;33990;44.602;10.976;2023-01-08T08:28:10;13.20;;;10.82;;
48199;SDS011;33990;44.602;10.976;2023-01-08T08:30:38;12.15;;;9.43;;
48199;SDS011;33990;44.602;10.976;2023-01-08T08:33:08;13.13;;;10.45;;
48199;SDS011;33990;44.602;10.976;2023-01-08T08:35:36;13.05;;;10.13;;
48199;SDS011;33990;44.602;10.976;2023-01-08T08:38:03;11.80;;;9.30;;
48199;SDS011;33990;44.602;10.976;2023-01-08T08:40:31;12.70;;;10.27;;
48199;SDS011;33990;44.602;10.976;2023-01-08T08:42:59;13.25;;;9.63;;
48199;SDS011;33990;44.602;10.976;2023-01-08T08:45:28;14.93;;;10.38;;
48199;SDS011;33990;44.602;10.976;2023-01-08T08:47:56;12.32;;;9.88;;
48199;SDS011;33990;44.602;10.976;2023-01-08T08:50:24;13.98;;;10.88;;
48199;SDS011;33990;44.602;10.976;2023-01-08T08:52:51;11.25;;;9.38;;
48199;SDS011;33990;44.602;10.976;2023-01-08T08:55:24;10.70;;;9.55;;
48199;SDS011;33990;44.602;10.976;2023-01-08T08:57:51;14.07;;;11.02;;
48199;SDS011;33990;44.602;10.976;2023-01-08T09:00:19;13.15;;;10.52;;
48199;SDS011;33990;44.602;10.976;2023-01-08T09:02:48;13.82;;;10.15;;
48199;SDS011;33990;44.602;10.976;2023-01-08T09:05:16;12.73;;;9.85;;
48199;SDS011;33990;44.602;10.976;2023-01-08T09:07:44;13.63;;;10.13;;
48199;SDS011;33990;44.602;10.976;2023-01-08T09:10:11;10.98;;;9.43;;
48199;SDS011;33990;44.602;10.976;2023-01-08T09:12:38;14.48;;;11.35;;
48199;SDS011;33990;44.602;10.976;2023-01-08T09:15:06;13.40;;;11.35;;
48199;SDS011;33990;44.602;10.976;2023-01-08T09:17:33;13.18;;;10.65;;
48199;SDS011;33990;44.602;10.976;2023-01-08T09:20:03;15.40;;;11.10;;
48199;SDS011;33990;44.602;10.976;2023-01-08T09:22:31;13.00;;;10.25;;
48199;SDS011;33990;44.602;10.976;2023-01-08T09:24:59;13.25;;;10.10;;
48199;SDS011;33990;44.602;10.976;2023-01-08T09:27:26;15.57;;;10.43;;
48199;SDS011;33990;44.602;10.976;2023-01-08T09:29:53;13.70;;;10.57;;
48199;SDS011;33990;44.602;10.976;2023-01-08T09:32:21;14.93;;;10.88;;
48199;SDS011;33990;44.602;10.976;2023-01-08T09:34:48;18.80;;;15.00;;
48199;SDS011;33990;44.602;10.976;2023-01-08T09:37:15;29.77;;;22.83;;
48199;SDS011;33990;44.602;10.976;2023-01-08T09:39:42;31.83;;;23.98;;
48199;SDS011;33990;44.602;10.976;2023-01-08T09:42:20;33.17;;;25.33;;
48199;SDS011;33990;44.602;10.976;2023-01-08T09:44:52;34.03;;;26.40;;
48199;SDS011;33990;44.602;10.976;2023-01-08T09:47:35;34.47;;;25.90;;
48199;SDS011;33990;44.602;10.976;2023-01-08T09:50:10;37.28;;;25.48;;
48199;SDS011;33990;44.602;10.976;2023-01-08T09:52:39;35.17;;;25.50;;
48199;SDS011;33990;44.602;10.976;2023-01-08T09:55:13;34.47;;;24.92;;
48199;SDS011;33990;44.602;10.976;2023-01-08T09:57:42;25.90;;;18.40;;
48199;SDS011;33990;44.602;10.976;2023-01-08T10:00:14;23.20;;;17.02;;
48199;SDS011;33990;44.602;10.976;2023-01-08T10:02:45;22.65;;;16.90;;
48199;SDS011;33990;44.602;10.976;2023-01-08T10:05:14;25.15;;;17.20;;
48199;SDS011;33990;44.602;10.976;2023-01-08T10:07:43;22.30;;;15.93;;
48199;SDS011;33990;44.602;10.976;2023-01-08T10:10:27;23.80;;;16.73;;
48199;SDS011;33990;44.602;10.976;2023-01-08T10:12:56;21.02;;;16.65;;
48199;SDS011;33990;44.602;10.976;2023-01-08T10:15:25;19.63;;;14.40;;
48199;SDS011;33990;44.602;10.976;2023-01-08T10:18:05;19.25;;;15.35;;
48199;SDS011;33990;44.602;10.976;2023-01-08T10:20:37;20.50;;;14.57;;
48199;SDS011;33990;44.602;10.976;2023-01-08T10:23:09;20.83;;;14.95;;
48199;SDS011;33990;44.602;10.976;2023-01-08T10:25:54;26.52;;;16.73;;
48199;SDS011;33990;44.602;10.976;2023-01-08T10:30:52;36.42;;;24.88;;
48199;SDS011;33990;44.602;10.976;2023-01-08T10:33:24;29.60;;;21.27;;
48199;SDS011;33990;44.602;10.976;2023-01-08T10:36:18;29.45;;;23.15;;
48199;SDS011;33990;44.602;10.976;2023-01-08T10:38:51;34.72;;;22.17;;
48199;SDS011;33990;44.602;10.976;2023-01-08T10:41:23;33.17;;;22.30;;
48199;SDS011;33990;44.602;10.976;2023-01-08T10:44:03;39.75;;;25.05;;
48199;SDS011;33990;44.602;10.976;2023-01-08T10:46:39;33.10;;;23.90;;
48199;SDS011;33990;44.602;10.976;2023-01-08T10:52:05;31.17;;;21.45;;
48199;SDS011;33990;44.602;10.976;2023-01-08T10:54:47;28.92;;;20.30;;
48199;SDS011;33990;44.602;10.976;2023-01-08T10:57:22;25.42;;;18.40;;
48199;SDS011;33990;44.602;10.976;2023-01-08T10:59:50;25.73;;;18.10;;
48199;SDS011;33990;44.602;10.976;2023-01-08T11:02:28;31.80;;;19.00;;
48199;SDS011;33990;44.602;10.976;2023-01-08T11:04:56;25.52;;;17.80;;
48199;SDS011;33990;44.602;10.976;2023-01-08T11:07:25;26.50;;;17.40;;
48199;SDS011;33990;44.602;10.976;2023-01-08T11:09:53;23.92;;;16.92;;
48199;SDS011;33990;44.602;10.976;2023-01-08T11:17:45;20.83;;;14.48;;
48199;SDS011;33990;44.602;10.976;2023-01-08T11:20:19;17.75;;;14.00;;
48199;SDS011;33990;44.602;10.976;2023-01-08T11:22:49;18.67;;;13.85;;
48199;SDS011;33990;44.602;10.976;2023-01-08T11:25:20;20.75;;;13.77;;
48199;SDS011;33990;44.602;10.976;2023-01-08T11:27:53;19.27;;;13.40;;
48199;SDS011;33990;44.602;10.976;2023-01-08T11:30:22;19.55;;;14.45;;
48199;SDS011;33990;44.602;10.976;2023-01-08T11:33:00;22.15;;;14.93;;
48199;SDS011;33990;44.602;10.976;2023-01-08T11:35:35;17.40;;;12.38;;
48199;SDS011;33990;44.602;10.976;2023-01-08T11:38:05;22.13;;;12.90;;
48199;SDS011;33990;44.602;10.976;2023-01-08T11:43:31;21.85;;;13.10;;
48199;SDS011;33990;44.602;10.976;2023-01-08T11:46:06;17.30;;;12.43;;
48199;SDS011;33990;44.602;10.976;2023-01-08T11:57:09;18.83;;;12.33;;
48199;SDS011;33990;44.602;10.976;2023-01-08T12:05:27;16.45;;;11.88;;
48199;SDS011;33990;44.602;10.976;2023-01-08T12:08:04;15.80;;;11.20;;
48199;SDS011;33990;44.602;10.976;2023-01-08T12:24:36;14.48;;;11.32;;
48199;SDS011;33990;44.602;10.976;2023-01-08T12:27:41;14.93;;;9.65;;
48199;SDS011;33990;44.602;10.976;2023-01-08T12:30:25;12.63;;;10.25;;
48199;SDS011;33990;44.602;10.976;2023-01-08T12:33:03;16.90;;;11.10;;
48199;SDS011;33990;44.602;10.976;2023-01-08T12:35:38;13.40;;;9.57;;
48199;SDS011;33990;44.602;10.976;2023-01-08T12:38:20;13.63;;;9.93;;
48199;SDS011;33990;44.602;10.976;2023-01-08T12:41:04;13.55;;;9.98;;
48199;SDS011;33990;44.602;10.976;2023-01-08T12:46:25;13.18;;;8.98;;
48199;SDS011;33990;44.602;10.976;2023-01-08T12:48:57;12.88;;;9.45;;
48199;SDS011;33990;44.602;10.976;2023-01-08T12:54:23;12.57;;;8.27;;
48199;SDS011;33990;44.602;10.976;2023-01-08T12:56:54;14.65;;;9.45;;
48199;SDS011;33990;44.602;10.976;2023-01-08T13:07:47;14.02;;;9.43;;
48199;SDS011;33990;44.602;10.976;2023-01-08T13:13:24;14.80;;;9.55;;
48199;SDS011;33990;44.602;10.976;2023-01-08T13:18:37;13.67;;;9.67;;
48199;SDS011;33990;44.602;10.976;2023-01-08T13:21:05;11.23;;;9.20;;
48199;SDS011;33990;44.602;10.976;2023-01-08T13:23:35;12.63;;;9.02;;
48199;SDS011;33990;44.602;10.976;2023-01-08T13:26:04;12.10;;;8.40;;
48199;SDS011;33990;44.602;10.976;2023-01-08T13:31:24;13.10;;;8.13;;
48199;SDS011;33990;44.602;10.976;2023-01-08T13:33:54;11.13;;;7.97;;
48199;SDS011;33990;44.602;10.976;2023-01-08T13:39:00;10.85;;;7.20;;
48199;SDS011;33990;44.602;10.976;2023-01-08T13:41:29;11.63;;;7.20;;
48199;SDS011;33990;44.602;10.976;2023-01-08T13:43:59;10.23;;;6.25;;
48199;SDS011;33990;44.602;10.976;2023-01-08T13:46:27;10.15;;;7.07;;
48199;SDS011;33990;44.602;10.976;2023-01-08T13:49:02;10.25;;;6.50;;
48199;SDS011;33990;44.602;10.976;2023-01-08T13:51:37;10.50;;;6.93;;
48199;SDS011;33990;44.602;10.976;2023-01-08T13:56:39;12.88;;;6.47;;
48199;SDS011;33990;44.602;10.976;2023-01-08T13:59:51;10.73;;;7.70;;
48199;SDS011;33990;44.602;10.976;2023-01-08T14:05:01;12.18;;;7.70;;
48199;SDS011;33990;44.602;10.976;2023-01-08T14:07:38;10.05;;;6.75;;
48199;SDS011;33990;44.602;10.976;2023-01-08T14:10:07;11.98;;;7.53;;
48199;SDS011;33990;44.602;10.976;2023-01-08T14:12:38;10.07;;;6.80;;
48199;SDS011;33990;44.602;10.976;2023-01-08T14:15:07;15.32;;;7.88;;
48199;SDS011;33990;44.602;10.976;2023-01-08T14:17:38;10.63;;;7.35;;
48199;SDS011;33990;44.602;10.976;2023-01-08T14:20:09;11.88;;;7.57;;
48199;SDS011;33990;44.602;10.976;2023-01-08T14:22:39;17.80;;;7.63;;
48199;SDS011;33990;44.602;10.976;2023-01-08T14:25:11;14.95;;;7.63;;
48199;SDS011;33990;44.602;10.976;2023-01-08T14:27:42;12.00;;;7.55;;
48199;SDS011;33990;44.602;10.976;2023-01-08T14:30:24;11.88;;;6.10;;
48199;SDS011;33990;44.602;10.976;2023-01-08T14:32:53;10.55;;;6.47;;
48199;SDS011;33990;44.602;10.976;2023-01-08T14:35:25;9.32;;;6.97;;
48199;SDS011;33990;44.602;10.976;2023-01-08T14:37:59;12.82;;;7.68;;
48199;SDS011;33990;44.602;10.976;2023-01-08T14:40:32;11.80;;;6.85;;
48199;SDS011;33990;44.602;10.976;2023-01-08T14:43:08;15.55;;;7.70;;
48199;SDS011;33990;44.602;10.976;2023-01-08T14:45:38;12.15;;;7.35;;
48199;SDS011;33990;44.602;10.976;2023-01-08T14:48:27;13.45;;;7.13;;
48199;SDS011;33990;44.602;10.976;2023-01-08T14:51:11;19.70;;;12.85;;
48199;SDS011;33990;44.602;10.976;2023-01-08T14:53:44;19.33;;;14.98;;
48199;SDS011;33990;44.602;10.976;2023-01-08T14:56:18;18.02;;;11.70;;
48199;SDS011;33990;44.602;10.976;2023-01-08T14:58:49;18.33;;;11.17;;
48199;SDS011;33990;44.602;10.976;2023-01-08T15:01:17;17.40;;;10.95;;
48199;SDS011;33990;44.602;10.976;2023-01-08T15:03:49;14.60;;;10.18;;
48199;SDS011;33990;44.602;10.976;2023-01-08T15:06:30;19.85;;;14.05;;
48199;SDS011;33990;44.602;10.976;2023-01-08T15:08:59;22.60;;;16.38;;
48199;SDS011;33990;44.602;10.976;2023-01-08T15:11:27;23.90;;;17.02;;
48199;SDS011;33990;44.602;10.976;2023-01-08T15:13:58;16.90;;;11.82;;
48199;SDS011;33990;44.602;10.976;2023-01-08T15:21:58;16.08;;;11.05;;
48199;SDS011;33990;44.602;10.976;2023-01-08T15:24:33;14.23;;;10.95;;
48199;SDS011;33990;44.602;10.976;2023-01-08T15:27:05;15.98;;;11.18;;
48199;SDS011;33990;44.602;10.976;2023-01-08T15:29:37;14.90;;;10.52;;
48199;SDS011;33990;44.602;10.976;2023-01-08T15:32:10;19.55;;;11.75;;
48199;SDS011;33990;44.602;10.976;2023-01-08T15:34:47;15.07;;;9.15;;
48199;SDS011;33990;44.602;10.976;2023-01-08T15:37:14;13.50;;;10.07;;
48199;SDS011;33990;44.602;10.976;2023-01-08T15:39:42;13.85;;;10.38;;
48199;SDS011;33990;44.602;10.976;2023-01-08T15:44:58;14.45;;;10.32;;
48199;SDS011;33990;44.602;10.976;2023-01-08T15:47:25;13.73;;;10.23;;
48199;SDS011;33990;44.602;10.976;2023-01-08T15:49:53;15.57;;;10.55;;
48199;SDS011;33990;44.602;10.976;2023-01-08T15:52:21;14.90;;;10.20;;
48199;SDS011;33990;44.602;10.976;2023-01-08T15:54:51;15.35;;;10.55;;
48199;SDS011;33990;44.602;10.976;2023-01-08T15:57:18;14.65;;;10.88;;
48199;SDS011;33990;44.602;10.976;2023-01-08T15:59:48;16.98;;;11.48;;
48199;SDS011;33990;44.602;10.976;2023-01-08T16:02:15;14.50;;;11.23;;
48199;SDS011;33990;44.602;10.976;2023-01-08T16:04:42;15.02;;;11.57;;
48199;SDS011;33990;44.602;10.976;2023-01-08T16:07:10;16.83;;;12.18;;
48199;SDS011;33990;44.602;10.976;2023-01-08T16:09:37;16.30;;;11.07;;
48199;SDS011;33990;44.602;10.976;2023-01-08T16:12:05;15.10;;;11.52;;